Time;durP1;ratioP1;P1;durP2;ratioP2;P2;SDS_P1;SDS_P2;PMS_P1;PMS_P2;Temp;Humidity;BMP_temperature;BMP_pressure;BME280_temperature;BME280_humidity;BME280_pressure;Samples;Min_cycle;Max_cycle;Signal;HPM_P1;HPM_P2
2022/05/07 00:01:35;;;;;;;10.67;8.40;;;;;;;12.75;76.48;97293.50;4957562;28;20186;-70
2022/05/07 00:04:00;;;;;;;13.47;8.30;;;;;;;12.77;76.70;97291.44;4965613;28;20319;-70
2022/05/07 00:06:25;;;;;;;13.10;9.20;;;;;;;12.61;78.11;97299.19;4967605;28;20181;-70
2022/05/07 00:08:51;;;;;;;11.27;9.67;;;;;;;12.36;79.82;97294.13;4971945;28;20697;-70
2022/05/07 00:11:20;;;;;;;13.33;9.60;;;;;;;12.26;81.05;97293.88;4973957;28;20263;-70
2022/05/07 00:13:49;;;;;;;10.43;8.90;;;;;;;12.05;80.67;97290.72;4964976;28;20248;-70
2022/05/07 00:18:59;;;;;;;11.70;9.03;;;;;;;12.11;80.25;97285.59;4970201;28;20295;-70
2022/05/07 00:21:24;;;;;;;12.17;9.10;;;;;;;12.32;79.62;97285.06;4955036;28;20217;-70
2022/05/07 00:23:49;;;;;;;10.30;8.13;;;;;;;11.96;81.10;97284.19;4955673;28;20190;-70
2022/05/07 00:26:15;;;;;;;11.67;8.80;;;;;;;11.78;82.92;97283.41;4958980;28;20206;-70
2022/05/07 00:28:40;;;;;;;13.20;8.17;;;;;;;11.87;82.28;97285.50;4973667;28;20196;-70
2022/05/07 00:31:05;;;;;;;11.63;8.33;;;;;;;11.74;82.50;97285.69;4972316;28;20176;-70
2022/05/07 00:33:31;;;;;;;8.57;7.67;;;;;;;11.63;82.71;97276.69;4967023;28;20536;-70
2022/05/07 00:35:56;;;;;;;9.37;7.80;;;;;;;11.53;82.69;97284.28;4955065;29;20188;-69
2022/05/07 00:38:21;;;;;;;8.37;6.83;;;;;;;11.52;82.35;97277.44;4955020;28;20689;-70
2022/05/07 00:40:47;;;;;;;7.60;6.50;;;;;;;11.51;82.33;97269.78;4970025;28;20601;-70
2022/05/07 00:43:15;;;;;;;8.30;6.50;;;;;;;11.36;83.18;97277.22;4972750;28;20269;-71
2022/05/07 00:45:44;;;;;;;9.90;7.37;;;;;;;11.18;84.22;97275.38;4972875;28;20561;-70
2022/05/07 00:48:10;;;;;;;9.50;7.50;;;;;;;11.13;84.62;97275.25;4956173;28;20556;-70
2022/05/07 00:53:22;;;;;;;9.93;8.13;;;;;;;11.12;86.01;97271.81;4968898;28;20189;-70
2022/05/07 00:55:49;;;;;;;9.63;8.03;;;;;;;11.18;85.72;97270.94;4962237;28;20212;-70
2022/05/07 00:58:15;;;;;;;11.27;7.30;;;;;;;11.10;86.03;97263.34;4973639;28;20193;-70
2022/05/07 01:00:43;;;;;;;11.40;7.80;;;;;;;11.00;87.23;97267.50;4958494;28;20642;-70
2022/05/07 01:03:09;;;;;;;10.33;8.93;;;;;;;11.01;88.16;97269.91;4957388;28;20219;-70
2022/05/07 01:05:35;;;;;;;9.70;7.83;;;;;;;10.92;87.76;97265.19;4973115;28;20220;-70
2022/05/07 01:08:00;;;;;;;13.90;10.17;;;;;;;10.94;91.18;97266.53;4973428;28;20184;-70
2022/05/07 01:10:27;;;;;;;13.97;8.90;;;;;;;10.89;89.16;97274.25;4971890;28;20189;-70
2022/05/07 01:12:54;;;;;;;12.37;9.60;;;;;;;10.96;91.17;97264.50;4957327;28;20228;-70
2022/05/07 01:15:20;;;;;;;12.33;10.50;;;;;;;10.91;91.75;97267.00;4973027;28;20297;-70
2022/05/07 01:17:45;;;;;;;14.37;10.73;;;;;;;10.72;93.10;97266.16;4972528;28;20184;-70
2022/05/07 01:20:12;;;;;;;12.10;9.67;;;;;;;10.81;92.03;97264.06;4957223;28;20209;-70
2022/05/07 01:22:38;;;;;;;12.63;10.00;;;;;;;10.83;90.85;97265.44;4972271;28;20189;-70
2022/05/07 01:25:05;;;;;;;9.80;8.80;;;;;;;10.84;90.77;97266.25;4974644;28;20268;-70
2022/05/07 01:27:30;;;;;;;13.77;9.97;;;;;;;10.75;91.08;97265.72;4963221;28;20311;-70
2022/05/07 01:29:56;;;;;;;11.40;9.30;;;;;;;10.69;91.86;97258.72;4960756;28;20280;-70
2022/05/07 01:32:22;;;;;;;13.40;9.73;;;;;;;10.65;92.07;97259.34;4958029;28;20661;-70
2022/05/07 01:34:47;;;;;;;11.53;10.17;;;;;;;10.64;93.17;97261.19;4957916;28;20263;-70
2022/05/07 01:37:13;;;;;;;11.43;10.23;;;;;;;10.50;92.92;97254.44;4957955;28;20204;-70
2022/05/07 01:39:38;;;;;;;16.37;10.83;;;;;;;10.43;94.93;97256.31;4970222;28;20205;-70
2022/05/07 01:42:04;;;;;;;12.37;10.73;;;;;;;10.51;95.56;97260.47;4976456;28;20180;-70
2022/05/07 01:44:29;;;;;;;15.93;11.57;;;;;;;10.53;95.40;97255.84;4972473;28;20511;-70
2022/05/07 01:49:38;;;;;;;14.73;11.80;;;;;;;10.54;95.65;97252.19;4963392;28;20271;-70
2022/05/07 01:52:04;;;;;;;14.23;11.77;;;;;;;10.41;95.89;97245.25;4957708;28;20237;-69
2022/05/07 01:54:29;;;;;;;16.93;11.33;;;;;;;10.34;96.83;97257.59;4957805;28;20181;-69
2022/05/07 01:56:54;;;;;;;14.90;12.00;;;;;;;10.35;97.69;97252.16;4957588;28;20205;-70
2022/05/07 01:59:20;;;;;;;15.27;11.80;;;;;;;10.33;98.46;97250.75;4950639;28;20212;-70
2022/05/07 02:01:45;;;;;;;18.40;13.27;;;;;;;10.43;98.88;97258.91;4960888;28;20181;-70
2022/05/07 02:04:11;;;;;;;16.70;13.63;;;;;;;10.52;98.76;97259.47;4957441;28;20189;-70
2022/05/07 02:06:36;;;;;;;19.43;12.97;;;;;;;10.51;98.42;97252.63;4957148;28;20188;-71
2022/05/07 02:09:02;;;;;;;20.07;13.00;;;;;;;10.68;98.01;97258.94;4966305;28;20232;-70
2022/05/07 02:11:27;;;;;;;18.00;13.43;;;;;;;10.82;98.51;97252.53;4963278;28;20192;-70
2022/05/07 02:13:52;;;;;;;21.83;15.13;;;;;;;10.90;97.78;97251.47;4956954;28;20197;-70
2022/05/07 02:16:18;;;;;;;20.03;14.57;;;;;;;11.05;97.44;97249.28;4955474;28;20229;-70
2022/05/07 02:18:43;;;;;;;19.70;14.43;;;;;;;10.97;97.32;97246.97;4962864;28;20204;-70
2022/05/07 02:21:08;;;;;;;18.37;14.50;;;;;;;11.16;96.23;97253.81;4976422;28;20184;-70
2022/05/07 02:23:34;;;;;;;19.30;13.60;;;;;;;10.89;95.92;97260.34;4976333;28;20195;-70
2022/05/07 02:26:00;;;;;;;16.23;13.07;;;;;;;10.71;96.60;97258.47;4976071;28;20653;-70
2022/05/07 02:28:25;;;;;;;17.27;13.80;;;;;;;10.54;97.71;97250.38;4970606;28;20192;-70
2022/05/07 02:30:51;;;;;;;16.60;12.57;;;;;;;10.37;98.84;97254.53;4955736;28;20193;-70
2022/05/07 02:33:17;;;;;;;14.17;12.20;;;;;;;10.61;96.93;97258.19;4972854;28;20637;-70
2022/05/07 02:35:43;;;;;;;16.03;12.37;;;;;;;10.62;96.66;97255.34;4962591;28;20193;-70
2022/05/07 02:38:08;;;;;;;16.50;13.20;;;;;;;10.61;96.99;97250.31;4974052;28;20184;-70
2022/05/07 02:42:33;;;;;;;16.93;12.23;;;;;;;10.46;96.80;97255.09;4956812;28;20658;-70
2022/05/07 02:43:20;;;;;;;13.80;10.80;;;;;;;10.39;96.66;97250.69;4960413;28;20642;-70
2022/05/07 02:45:45;;;;;;;14.87;11.83;;;;;;;10.21;98.30;97258.47;4956463;28;20186;-70
2022/05/07 02:48:10;;;;;;;12.90;10.90;;;;;;;10.03;99.38;97251.31;4958037;28;20205;-70
2022/05/07 02:50:36;;;;;;;11.83;10.33;;;;;;;10.07;99.06;97261.38;4975872;28;20203;-70
2022/05/07 02:53:01;;;;;;;13.43;10.40;;;;;;;9.93;98.96;97253.59;4972574;28;20184;-70
2022/05/07 02:55:27;;;;;;;14.83;10.87;;;;;;;9.89;99.36;97255.03;4956745;28;20201;-70
2022/05/07 02:57:52;;;;;;;13.53;10.87;;;;;;;9.89;99.41;97252.41;4956458;28;20193;-70
2022/05/07 03:00:18;;;;;;;15.27;10.77;;;;;;;9.83;100.00;97260.31;4974632;28;20267;-70
2022/05/07 03:02:43;;;;;;;13.03;10.63;;;;;;;9.80;100.00;97250.25;4960883;28;20718;-70
2022/05/07 03:05:08;;;;;;;15.37;12.67;;;;;;;10.09;100.00;97251.47;4956439;28;20601;-70
2022/05/07 03:07:34;;;;;;;18.20;13.73;;;;;;;10.34;100.00;97250.53;4963636;28;20584;-70
2022/05/07 03:09:59;;;;;;;18.97;14.00;;;;;;;10.41;99.20;97248.69;4969565;28;20207;-70
2022/05/07 03:12:25;;;;;;;21.27;13.73;;;;;;;10.34;100.00;97254.97;4975147;28;20591;-70
2022/05/07 03:14:50;;;;;;;18.33;14.00;;;;;;;10.32;100.00;97251.75;4974773;28;20232;-70
2022/05/07 03:17:17;;;;;;;20.27;15.30;;;;;;;10.16;100.00;97255.69;4974931;28;20189;-70
2022/05/07 03:19:42;;;;;;;21.50;16.87;;;;;;;9.95;100.00;97258.63;4961644;28;20197;-70
2022/05/07 03:22:08;;;;;;;24.40;17.40;;;;;;;10.05;100.00;97256.34;4960687;28;20192;-70
2022/05/07 03:24:37;;;;;;;19.10;15.40;;;;;;;10.08;100.00;97255.94;4975326;28;20263;-70
2022/05/07 03:27:03;;;;;;;22.83;16.37;;;;;;;9.94;100.00;97257.03;4964922;28;20200;-70
2022/05/07 03:29:29;;;;;;;25.30;17.73;;;;;;;9.85;100.00;97256.47;4970940;28;20300;-70
2022/05/07 03:31:54;;;;;;;23.67;17.80;;;;;;;9.93;100.00;97258.81;4956637;28;20235;-70
2022/05/07 03:34:20;;;;;;;24.47;19.67;;;;;;;9.85;100.00;97251.25;4955859;28;20189;-70
2022/05/07 03:36:45;;;;;;;23.10;19.10;;;;;;;9.93;100.00;97256.22;4957509;28;20182;-71
2022/05/07 03:39:12;;;;;;;25.03;19.07;;;;;;;9.90;100.00;97250.59;4972814;28;20662;-70
2022/05/07 03:41:38;;;;;;;24.30;18.93;;;;;;;9.72;100.00;97251.31;4970338;28;20186;-70
2022/05/07 03:44:03;;;;;;;23.17;18.97;;;;;;;9.64;100.00;97246.28;4955566;28;20249;-71
2022/05/07 03:46:29;;;;;;;29.67;20.20;;;;;;;9.70;100.00;97255.13;4969961;28;20660;-70
2022/05/07 03:48:54;;;;;;;24.13;19.43;;;;;;;9.64;100.00;97248.91;4974569;28;20198;-70
2022/05/07 03:51:20;;;;;;;25.83;19.97;;;;;;;9.67;100.00;97251.13;4974821;28;20189;-70
2022/05/07 03:53:45;;;;;;;26.03;18.97;;;;;;;9.57;100.00;97251.59;4974469;28;20552;-70
2022/05/07 03:56:11;;;;;;;22.33;18.80;;;;;;;9.49;100.00;97253.63;4962543;28;20193;-70
2022/05/07 03:58:37;;;;;;;25.30;19.10;;;;;;;9.44;100.00;97245.59;4955448;28;20189;-70
2022/05/07 04:01:03;;;;;;;27.10;20.17;;;;;;;9.44;100.00;97250.81;4940160;28;20224;-70
2022/05/07 04:03:29;;;;;;;25.90;20.20;;;;;;;9.54;100.00;97257.22;4974497;28;20190;-70
2022/05/07 04:05:56;;;;;;;23.63;18.70;;;;;;;9.52;100.00;97248.00;4963733;28;20189;-70
2022/05/07 04:08:23;;;;;;;27.47;18.00;;;;;;;9.42;100.00;97256.25;4955198;28;20181;-70
2022/05/07 04:10:49;;;;;;;22.40;17.57;;;;;;;9.49;100.00;97257.03;4955282;28;20308;-70
2022/05/07 04:13:15;;;;;;;22.10;18.10;;;;;;;9.52;100.00;97258.44;4955134;28;20268;-71
2022/05/07 04:15:43;;;;;;;21.47;17.97;;;;;;;9.51;100.00;97257.66;4954561;28;20248;-69
2022/05/07 04:18:08;;;;;;;21.37;17.10;;;;;;;9.60;100.00;97251.16;4960989;28;20681;-70
2022/05/07 04:20:34;;;;;;;24.10;17.33;;;;;;;9.60;100.00;97259.00;4953899;28;20209;-71
2022/05/07 04:23:01;;;;;;;19.60;15.63;;;;;;;9.79;100.00;97259.13;4954064;28;20542;-70
2022/05/07 04:25:27;;;;;;;22.00;16.57;;;;;;;9.74;100.00;97265.00;4956046;28;20248;-70
2022/05/07 04:27:55;;;;;;;20.10;16.83;;;;;;;9.77;100.00;97259.31;4954983;28;20642;-71
2022/05/07 04:30:22;;;;;;;22.17;16.60;;;;;;;9.94;100.00;97259.63;4973472;28;20303;-71
2022/05/07 04:32:47;;;;;;;20.87;16.47;;;;;;;9.89;100.00;97262.88;4974170;28;20180;-69
2022/05/07 04:35:13;;;;;;;21.50;16.20;;;;;;;9.93;100.00;97265.88;4962526;28;20281;-70
2022/05/07 04:37:38;;;;;;;20.40;16.43;;;;;;;10.09;100.00;97262.75;4956979;28;20502;-70
2022/05/07 04:40:04;;;;;;;16.27;14.40;;;;;;;10.19;100.00;97267.59;4973721;28;20204;-70
2022/05/07 04:42:30;;;;;;;20.47;16.40;;;;;;;10.24;100.00;97265.94;4959100;28;20272;-70
2022/05/07 04:44:55;;;;;;;19.63;14.73;;;;;;;10.36;100.00;97264.25;4966624;28;20188;-70
2022/05/07 04:47:20;;;;;;;20.03;15.60;;;;;;;10.51;100.00;97260.47;4973721;28;20193;-70
2022/05/07 04:49:46;;;;;;;16.13;13.97;;;;;;;10.43;100.00;97270.22;4973561;28;20323;-70
2022/05/07 04:52:11;;;;;;;15.63;13.80;;;;;;;10.66;100.00;97274.88;4972419;28;20652;-70
2022/05/07 04:54:38;;;;;;;19.23;14.73;;;;;;;10.99;98.27;97271.94;4963774;28;20268;-70
2022/05/07 04:57:04;;;;;;;14.80;13.03;;;;;;;11.30;98.20;97275.47;4954537;28;20205;-70
2022/05/07 04:59:30;;;;;;;13.47;11.37;;;;;;;11.59;95.60;97277.38;4954387;28;20262;-70
2022/05/07 05:01:55;;;;;;;16.10;11.73;;;;;;;11.73;95.62;97284.06;4943116;28;20653;-70
2022/05/07 05:04:21;;;;;;;13.47;11.00;;;;;;;11.75;94.00;97276.78;4965219;28;20262;-70
2022/05/07 05:06:46;;;;;;;11.63;10.43;;;;;;;12.30;91.78;97279.25;4954516;28;20188;-70
2022/05/07 05:09:14;;;;;;;12.37;10.60;;;;;;;13.17;86.64;97278.44;4955742;28;20563;-70
2022/05/07 05:11:40;;;;;;;16.13;10.40;;;;;;;13.26;86.03;97278.91;4954358;28;20193;-71
2022/05/07 05:16:50;;;;;;;13.40;10.70;;;;;;;13.55;83.54;97285.00;4955981;28;20212;-71
2022/05/07 05:19:16;;;;;;;11.60;10.40;;;;;;;13.76;83.09;97284.41;4953825;28;20690;-68
2022/05/07 05:21:42;;;;;;;12.70;10.30;;;;;;;13.77;82.82;97291.25;4954453;28;20185;-69
2022/05/07 05:24:08;;;;;;;13.63;10.97;;;;;;;13.68;81.59;97282.13;4965317;28;20209;-68
2022/05/07 05:26:33;;;;;;;13.40;11.20;;;;;;;13.64;80.99;97286.25;4957483;28;20186;-69
2022/05/07 05:28:59;;;;;;;13.17;11.73;;;;;;;13.75;81.33;97293.31;4961657;28;20211;-69
2022/05/07 05:31:24;;;;;;;12.07;10.87;;;;;;;14.12;79.10;97291.91;4973164;28;20272;-70
2022/05/07 05:33:49;;;;;;;11.33;10.13;;;;;;;14.13;78.38;97290.88;4971666;28;20219;-69
2022/05/07 05:36:15;;;;;;;12.77;9.60;;;;;;;14.28;77.40;97294.81;4973072;28;20189;-69
2022/05/07 05:38:40;;;;;;;11.50;9.37;;;;;;;14.43;76.84;97293.25;4972861;28;20205;-70
2022/05/07 05:41:06;;;;;;;11.37;9.00;;;;;;;14.28;76.87;97295.63;4964308;28;20189;-69
2022/05/07 05:43:31;;;;;;;9.80;8.57;;;;;;;14.58;74.81;97298.00;4960656;28;20565;-70
2022/05/07 05:45:57;;;;;;;9.27;8.37;;;;;;;15.06;73.40;97292.16;4954791;28;20194;-69
2022/05/07 05:48:24;;;;;;;11.03;8.67;;;;;;;14.94;72.43;97300.16;4936997;29;20276;-70
2022/05/07 05:50:49;;;;;;;10.87;8.50;;;;;;;15.15;71.99;97300.47;4953936;28;20221;-70
2022/05/07 05:53:15;;;;;;;9.90;8.90;;;;;;;15.38;70.74;97302.88;4960503;28;20188;-70
2022/05/07 05:55:40;;;;;;;9.37;8.00;;;;;;;15.43;70.55;97302.19;4965798;28;20215;-70
2022/05/07 05:58:06;;;;;;;10.07;8.93;;;;;;;15.37;70.11;97310.03;4954454;28;20193;-70
2022/05/07 06:00:31;;;;;;;9.97;8.97;;;;;;;15.44;69.56;97314.31;4967855;28;20231;-69
2022/05/07 06:02:56;;;;;;;9.37;8.37;;;;;;;15.72;69.07;97306.25;4968865;28;20192;-70
2022/05/07 06:05:22;;;;;;;10.70;8.87;;;;;;;15.83;68.07;97300.03;4954009;28;20189;-69
2022/05/07 06:07:47;;;;;;;9.67;8.67;;;;;;;15.90;67.70;97307.78;4957847;28;20197;-70
2022/05/07 06:10:12;;;;;;;12.40;8.80;;;;;;;14.83;70.96;97310.78;4971865;28;20192;-70
2022/05/07 06:12:38;;;;;;;11.23;8.27;;;;;;;15.29;69.90;97312.28;4974184;28;20193;-69
2022/05/07 06:15:05;;;;;;;8.90;7.80;;;;;;;15.24;73.35;97312.22;4962032;28;20225;-70
2022/05/07 06:17:31;;;;;;;9.27;8.43;;;;;;;15.36;73.50;97312.91;4975865;28;20200;-70
2022/05/07 06:19:56;;;;;;;12.17;8.77;;;;;;;15.19;73.21;97317.44;4974751;28;20295;-69
2022/05/07 06:22:22;;;;;;;12.07;8.50;;;;;;;15.05;73.76;97311.66;4974291;28;20193;-69
2022/05/07 06:27:32;;;;;;;9.43;8.00;;;;;;;15.61;71.26;97309.81;4976330;28;20254;-69
2022/05/07 06:29:58;;;;;;;8.93;7.83;;;;;;;15.69;70.68;97317.34;4975889;28;20180;-69
2022/05/07 06:32:31;;;;;;;9.47;8.10;;;;;;;15.76;69.69;97321.41;4968685;28;20650;-68
2022/05/07 06:34:56;;;;;;;9.33;8.00;;;;;;;16.06;67.46;97320.13;4956718;28;20607;-70
2022/05/07 06:37:22;;;;;;;10.57;8.70;;;;;;;15.65;68.95;97313.59;4956520;28;20193;-69
2022/05/07 06:39:47;;;;;;;9.40;8.13;;;;;;;15.84;68.82;97317.50;4956098;28;20208;-69
2022/05/07 06:42:15;;;;;;;11.63;8.67;;;;;;;15.94;68.56;97322.91;4965001;28;20195;-70
2022/05/07 06:44:41;;;;;;;9.23;8.33;;;;;;;15.78;70.13;97321.13;4975809;28;20394;-70
2022/05/07 06:47:06;;;;;;;11.23;8.27;;;;;;;15.63;69.96;97326.25;4959475;28;20276;-70
2022/05/07 06:49:31;;;;;;;8.70;7.80;;;;;;;15.38;70.69;97316.88;4972644;28;20192;-70
2022/05/07 06:51:57;;;;;;;11.07;9.97;;;;;;;15.72;70.85;97317.63;4968870;28;20285;-69
2022/05/07 06:54:22;;;;;;;9.60;8.50;;;;;;;16.04;69.94;97320.41;4956459;28;20192;-68
2022/05/07 06:56:48;;;;;;;10.90;7.40;;;;;;;15.50;70.79;97321.28;4956373;28;20204;-68
2022/05/07 06:59:13;;;;;;;8.63;7.73;;;;;;;15.56;70.40;97318.47;4956359;28;20666;-69
2022/05/07 07:01:39;;;;;;;7.87;7.07;;;;;;;15.92;68.85;97319.72;4957416;28;20301;-69
2022/05/07 07:04:04;;;;;;;9.73;7.03;;;;;;;15.96;67.33;97315.53;4955932;28;20324;-69
2022/05/07 07:06:30;;;;;;;7.63;6.83;;;;;;;15.51;68.37;97328.16;4956765;28;20280;-69
2022/05/07 07:08:56;;;;;;;9.93;7.17;;;;;;;15.86;66.16;97312.78;4974647;28;20189;-69
2022/05/07 07:11:22;;;;;;;6.37;5.70;;;;;;;16.18;62.12;97321.59;4967606;28;20189;-70
2022/05/07 07:13:47;;;;;;;7.30;5.70;;;;;;;16.43;62.02;97321.06;4955943;28;20670;-70
2022/05/07 07:16:13;;;;;;;9.60;6.50;;;;;;;15.82;64.46;97321.47;4955689;28;20248;-71
2022/05/07 07:18:38;;;;;;;7.93;7.13;;;;;;;16.39;64.33;97317.31;4954883;28;20275;-71
2022/05/07 07:21:03;;;;;;;7.10;6.37;;;;;;;16.15;63.74;97316.81;4960857;28;20645;-69
2022/05/07 07:23:29;;;;;;;9.33;6.90;;;;;;;16.37;63.63;97327.34;4974520;28;20196;-69
2022/05/07 07:25:54;;;;;;;7.03;6.33;;;;;;;16.26;63.40;97325.66;4962320;28;20189;-70
2022/05/07 07:28:20;;;;;;;7.57;6.57;;;;;;;16.37;63.18;97321.25;4938511;29;20276;-71
2022/05/07 07:30:45;;;;;;;7.37;6.67;;;;;;;16.39;64.07;97327.09;4962986;28;20192;-69
2022/05/07 07:33:13;;;;;;;7.57;6.83;;;;;;;16.75;63.04;97321.09;4969281;28;20693;-72
2022/05/07 07:35:38;;;;;;;7.43;6.33;;;;;;;16.59;62.18;97325.47;4955734;28;20186;-69
2022/05/07 07:38:04;;;;;;;7.67;6.30;;;;;;;17.02;60.25;97315.75;4955676;28;20188;-68
2022/05/07 07:40:31;;;;;;;7.80;6.53;;;;;;;16.84;61.04;97316.13;4957471;28;20212;-70
2022/05/07 07:42:56;;;;;;;8.73;7.10;;;;;;;16.90;61.46;97318.56;4958456;28;20663;-72
2022/05/07 07:48:07;;;;;;;8.73;5.77;;;;;;;16.85;61.46;97321.19;4974584;28;20597;-69
2022/05/07 07:50:35;;;;;;;8.70;5.90;;;;;;;16.87;60.82;97319.09;4968864;28;20189;-69
2022/05/07 07:53:02;;;;;;;8.50;6.23;;;;;;;17.13;60.75;97311.31;4958431;28;20188;-70
2022/05/07 07:55:28;;;;;;;9.10;6.77;;;;;;;16.99;61.28;97322.38;4961553;28;20676;-70
2022/05/07 07:57:56;;;;;;;7.53;6.30;;;;;;;16.43;59.92;97310.47;4959667;28;20281;-70
2022/05/07 08:00:22;;;;;;;10.53;6.80;;;;;;;16.10;62.66;97322.06;4953661;28;20213;-69
2022/05/07 08:02:58;;;;;;;8.83;6.80;;;;;;;17.02;61.17;97319.19;4964566;28;20185;-70
2022/05/07 08:05:27;;;;;;;7.27;6.33;;;;;;;16.85;60.28;97318.53;4970674;28;20180;-71
2022/05/07 08:13:22;;;;;;;10.53;6.87;;;;;;;16.44;62.89;97319.22;4959892;28;20622;-68
2022/05/07 08:15:48;;;;;;;8.40;7.00;;;;;;;16.72;62.25;97321.59;4952138;28;20217;-68
2022/05/07 08:18:14;;;;;;;8.87;7.90;;;;;;;16.89;62.50;97327.56;4953887;28;20240;-68
2022/05/07 08:20:43;;;;;;;10.10;8.20;;;;;;;16.85;62.45;97330.97;4954115;28;20219;-68
2022/05/07 08:23:10;;;;;;;8.57;7.73;;;;;;;16.60;63.49;97327.09;4969544;28;20720;-68
2022/05/07 08:25:36;;;;;;;9.03;7.77;;;;;;;16.62;64.05;97326.81;4973174;28;20248;-68
2022/05/07 08:28:03;;;;;;;12.57;8.23;;;;;;;16.57;64.00;97321.44;4973287;28;20184;-69
2022/05/07 08:30:29;;;;;;;9.83;8.57;;;;;;;16.40;65.65;97315.47;4962886;28;20593;-70
2022/05/07 08:32:54;;;;;;;10.53;8.60;;;;;;;16.89;63.97;97327.56;4967888;28;20250;-68
2022/05/07 08:35:20;;;;;;;10.47;8.70;;;;;;;16.67;64.11;97312.81;4972109;28;20196;-70
2022/05/07 08:37:46;;;;;;;11.73;8.77;;;;;;;16.81;64.20;97314.81;4954803;28;20189;-68
2022/05/07 08:40:16;;;;;;;10.83;8.80;;;;;;;16.84;64.66;97318.78;4954580;28;20201;-68
2022/05/07 08:42:42;;;;;;;9.53;8.60;;;;;;;17.21;62.61;97311.66;4966267;28;20634;-68
2022/05/07 08:45:07;;;;;;;11.20;9.07;;;;;;;17.22;62.19;97315.09;4971946;28;20195;-69
2022/05/07 08:47:33;;;;;;;12.83;9.57;;;;;;;17.09;62.95;97311.03;4937905;28;20204;-69
2022/05/07 08:49:58;;;;;;;9.57;8.37;;;;;;;17.50;63.28;97314.72;4954817;28;20196;-68
2022/05/07 08:52:24;;;;;;;9.77;8.57;;;;;;;17.73;62.74;97311.66;4963727;28;20189;-69
2022/05/07 08:54:50;;;;;;;13.40;9.60;;;;;;;17.42;61.51;97313.34;4973639;28;20192;-69
2022/05/07 08:57:15;;;;;;;10.17;8.30;;;;;;;17.64;61.99;97315.09;4974038;28;20251;-68
2022/05/07 08:59:43;;;;;;;10.07;8.83;;;;;;;17.58;61.67;97313.44;4970492;28;20209;-71
2022/05/07 09:02:09;;;;;;;12.40;8.17;;;;;;;17.85;61.78;97311.47;4954620;29;20314;-69
2022/05/07 09:04:36;;;;;;;12.80;9.20;;;;;;;17.72;60.55;97317.25;4971237;28;20223;-68
2022/05/07 09:07:03;;;;;;;9.03;8.13;;;;;;;18.17;60.08;97314.72;4959704;28;20549;-68
2022/05/07 09:09:31;;;;;;;15.27;8.90;;;;;;;17.78;58.01;97308.25;4954860;28;20190;-70
2022/05/07 09:11:57;;;;;;;8.63;6.57;;;;;;;18.07;57.72;97305.94;4972024;28;20650;-69
2022/05/07 09:14:29;;;;;;;8.43;6.47;;;;;;;17.84;53.90;97313.31;4972844;28;20187;-70
2022/05/07 09:16:58;;;;;;;9.35;7.50;;;;;;;17.57;55.83;97309.19;4961226;28;20273;-69
2022/05/07 09:19:29;;;;;;;14.27;8.00;;;;;;;17.72;55.28;97298.69;4952161;28;20765;-69
2022/05/07 09:22:08;;;;;;;9.52;6.78;;;;;;;17.55;54.17;97306.00;4942499;28;20212;-69
2022/05/07 09:24:34;;;;;;;6.45;5.72;;;;;;;17.66;53.05;97310.34;4971914;28;20188;-69
2022/05/07 09:27:00;;;;;;;7.88;6.22;;;;;;;17.85;54.07;97304.31;4973041;28;20181;-68
2022/05/07 09:29:29;;;;;;;9.03;7.20;;;;;;;17.93;54.73;97302.22;4973321;28;20203;-69
2022/05/07 09:31:55;;;;;;;8.07;6.30;;;;;;;17.82;54.06;97302.19;4954478;28;20517;-69
2022/05/07 09:37:20;;;;;;;6.20;5.60;;;;;;;17.51;53.62;97304.91;4953986;28;20185;-70
2022/05/07 09:39:50;;;;;;;10.63;5.97;;;;;;;17.65;55.21;97298.94;4969615;28;20290;-72
2022/05/07 09:42:18;;;;;;;5.40;4.90;;;;;;;17.61;53.16;97287.22;4957340;28;20537;-72
2022/05/07 09:44:44;;;;;;;5.50;4.50;;;;;;;17.43;52.05;97288.47;4957624;28;20181;-70
2022/05/07 09:47:12;;;;;;;5.47;4.27;;;;;;;17.17;51.83;97296.50;4957893;28;20230;-70
2022/05/07 09:50:19;;;;;;;4.40;4.00;;;;;;;17.25;53.41;97291.53;4972886;28;20189;-72
2022/05/07 09:52:27;;;;;;;5.23;3.50;;;;;;;17.09;50.78;97289.84;4976608;28;20272;-70
2022/05/07 09:57:38;;;;;;;7.33;2.70;;;;;;;17.52;47.70;97295.91;4960511;28;20541;-72
2022/05/07 10:00:10;;;;;;;5.47;2.53;;;;;;;17.47;45.72;97286.09;4957070;28;20209;-71
2022/05/07 10:03:09;;;;;;;2.53;1.80;;;;;;;17.64;43.80;97280.63;4963621;28;20630;-71
2022/05/07 10:06:11;;;;;;;2.53;2.17;;;;;;;17.76;42.49;97281.19;4975857;28;20177;-72
2022/05/07 10:08:52;;;;;;;5.38;2.58;;;;;;;17.84;43.03;97270.06;4945216;28;20192;-72
2022/05/07 10:11:18;;;;;;;2.83;2.40;;;;;;;17.96;43.75;97280.47;4955253;28;20187;-73
2022/05/07 10:13:57;;;;;;;2.40;2.17;;;;;;;17.98;41.31;97278.34;4968782;28;20185;-73
2022/05/07 10:16:23;;;;;;;1.55;1.45;;;;;;;18.29;37.92;97277.34;4970081;28;20316;-72
2022/05/07 10:18:49;;;;;;;3.13;1.60;;;;;;;18.37;40.29;97270.72;4960668;28;20181;-74
2022/05/07 10:21:16;;;;;;;1.70;1.60;;;;;;;18.61;40.60;97267.31;4972486;28;20219;-73
2022/05/07 10:23:55;;;;;;;1.67;1.57;;;;;;;18.83;40.65;97261.75;4975446;28;20602;-73
2022/05/07 10:26:39;;;;;;;7.22;2.20;;;;;;;19.08;41.62;97260.91;4970155;28;20188;-73
2022/05/07 10:29:07;;;;;;;2.30;2.10;;;;;;;18.67;42.13;97268.91;4956832;28;20177;-71
2022/05/07 10:31:44;;;;;;;4.10;2.67;;;;;;;18.23;42.83;97268.56;4939351;29;20272;-70
2022/05/07 10:34:09;;;;;;;3.03;2.20;;;;;;;18.46;43.04;97277.09;4955323;28;20173;-71
2022/05/07 10:36:35;;;;;;;3.35;2.22;;;;;;;18.38;43.37;97270.47;4971830;28;20267;-71
2022/05/07 10:39:08;;;;;;;4.78;2.40;;;;;;;18.68;43.74;97269.69;4975106;28;20212;-71
2022/05/07 10:41:46;;;;;;;4.95;2.70;;;;;;;18.21;45.16;97265.41;4965931;28;20193;-71
2022/05/07 10:44:11;;;;;;;2.67;2.47;;;;;;;18.39;44.75;97266.72;4955192;28;20260;-71
2022/05/07 10:46:43;;;;;;;2.80;2.50;;;;;;;18.26;44.27;97261.97;4956756;28;20619;-71
2022/05/07 10:49:09;;;;;;;2.70;2.25;;;;;;;18.98;42.67;97247.63;4956396;28;20185;-72
2022/05/07 10:51:36;;;;;;;4.13;2.30;;;;;;;19.43;42.17;97242.19;4962320;28;20272;-71
2022/05/07 10:54:22;;;;;;;2.55;2.08;;;;;;;19.13;42.78;97244.94;4963422;28;20189;-71
2022/05/07 10:56:50;;;;;;;3.10;2.42;;;;;;;19.58;40.84;97245.88;4955434;28;20213;-72
2022/05/07 10:59:16;;;;;;;2.92;2.65;;;;;;;19.01;40.38;97244.44;4974910;28;20612;-71
2022/05/07 11:01:42;;;;;;;2.30;2.20;;;;;;;19.78;39.83;97240.50;4967359;28;20193;-72
2022/05/07 11:04:12;;;;;;;3.25;2.35;;;;;;;20.01;39.93;97237.16;4966406;28;20188;-71
2022/05/07 11:06:40;;;;;;;2.30;2.10;;;;;;;20.14;40.47;97235.75;4975299;28;20189;-71
2022/05/07 11:09:06;;;;;;;3.42;3.08;;;;;;;19.76;44.56;97239.97;4959107;28;20682;-72
2022/05/07 11:11:44;;;;;;;8.98;3.25;;;;;;;19.06;46.74;97241.75;4971598;28;20226;-71
2022/05/07 11:14:09;;;;;;;6.35;3.15;;;;;;;18.35;47.94;97247.09;4953597;28;20193;-70
2022/05/07 11:16:41;;;;;;;8.20;3.13;;;;;;;18.57;48.01;97244.22;4956261;28;20229;-71
2022/05/07 11:19:06;;;;;;;3.42;2.67;;;;;;;18.90;47.24;97242.84;4955726;28;20200;-72
2022/05/07 11:21:36;;;;;;;3.35;2.60;;;;;;;18.78;46.91;97235.16;4955717;28;20185;-72
2022/05/07 11:24:02;;;;;;;3.30;2.63;;;;;;;18.58;46.45;97241.28;4955731;28;20271;-73
2022/05/07 11:26:28;;;;;;;3.75;2.70;;;;;;;18.67;46.58;97228.28;4957362;28;20186;-72
2022/05/07 11:28:54;;;;;;;5.38;2.83;;;;;;;18.42;46.50;97234.38;4955803;28;20646;-72
2022/05/07 11:31:30;;;;;;;3.33;2.88;;;;;;;18.58;45.74;97235.19;4955346;28;20291;-72
2022/05/07 11:34:11;;;;;;;2.90;2.70;;;;;;;18.72;44.91;97222.97;4959575;28;20188;-72
2022/05/07 11:36:37;;;;;;;3.55;2.38;;;;;;;18.97;44.49;97230.91;4955165;28;20177;-72
2022/05/07 11:39:06;;;;;;;3.03;2.45;;;;;;;18.92;43.24;97232.78;4961358;28;20212;-72
2022/05/07 11:41:32;;;;;;;2.50;2.30;;;;;;;18.42;43.09;97226.41;4954198;28;20194;-72
2022/05/07 11:46:55;;;;;;;6.63;2.72;;;;;;;19.06;42.11;97223.16;4956881;28;20228;-72
2022/05/07 11:49:34;;;;;;;3.90;2.60;;;;;;;19.57;40.85;97223.00;4955234;28;20267;-75
2022/05/07 11:52:27;;;;;;;2.58;2.38;;;;;;;19.91;40.25;97211.41;4953344;28;20180;-73
2022/05/07 11:54:52;;;;;;;3.90;2.67;;;;;;;19.68;40.87;97209.41;4965650;28;20181;-73
2022/05/07 11:57:31;;;;;;;5.32;2.42;;;;;;;19.75;41.21;97201.13;4960922;28;20177;-73